Time;durP1;ratioP1;P1;durP2;ratioP2;P2;SDS_P1;SDS_P2;PMS_P1;PMS_P2;Temp;Humidity;BMP_temperature;BMP_pressure;BME280_temperature;BME280_humidity;BME280_pressure;Samples;Min_cycle;Max_cycle;Signal;HPM_P1;HPM_P2
2023/06/04 00:05:47;;;;;;;1.73;1.00;;;12.20;99.90;;;;;;12425645;28;20506;-37
2023/06/04 00:11:50;;;;;;;4.57;1.33;;;12.20;99.90;;;;;;12423739;28;20065;-37
2023/06/04 00:17:52;;;;;;;4.20;1.15;;;12.20;99.90;;;;;;12415815;28;20054;-37
2023/06/04 00:23:54;;;;;;;2.50;1.50;;;12.20;99.90;;;;;;12424343;28;20057;-37
2023/06/04 00:29:56;;;;;;;3.65;1.33;;;11.90;99.90;;;;;;12428764;28;20046;-37
2023/06/04 00:35:58;;;;;;;2.55;1.20;;;11.90;99.90;;;;;;12415080;28;20141;-37
2023/06/04 00:42:00;;;;;;;4.25;0.95;;;11.80;99.90;;;;;;12426610;28;20404;-37
2023/06/04 00:48:03;;;;;;;1.90;1.10;;;11.80;99.90;;;;;;12421137;28;20069;-38
2023/06/04 00:54:11;;;;;;;3.13;1.40;;;11.70;99.90;;;;;;12415719;28;20085;-37
2023/06/04 01:00:14;;;;;;;3.08;1.60;;;11.70;99.90;;;;;;12438925;28;20057;-37
2023/06/04 01:06:26;;;;;;;3.72;1.38;;;11.60;99.90;;;;;;12446486;28;20049;-37
2023/06/04 01:12:28;;;;;;;2.28;1.20;;;11.50;99.90;;;;;;12417070;28;20285;-38
2023/06/04 01:18:32;;;;;;;5.13;1.10;;;11.40;99.90;;;;;;12411275;28;20091;-37
2023/06/04 01:24:37;;;;;;;2.95;1.40;;;11.10;99.90;;;;;;12438308;28;20050;-37
2023/06/04 01:30:43;;;;;;;;;;;11.10;99.90;;;;;;12426112;28;20081;-37
2023/06/04 01:36:45;;;;;;;2.55;1.30;;;11.10;99.90;;;;;;12425715;28;19944;-37
2023/06/04 01:42:47;;;;;;;2.42;1.30;;;11.00;99.90;;;;;;12421625;28;20049;-37
2023/06/04 01:48:48;;;;;;;2.22;1.13;;;11.10;99.90;;;;;;12432935;28;20042;-37
2023/06/04 01:54:52;;;;;;;3.03;1.10;;;11.20;99.90;;;;;;12413528;28;20045;-37
2023/06/04 02:00:59;;;;;;;3.93;1.37;;;11.20;99.90;;;;;;12428419;28;20502;-37
2023/06/04 02:07:02;;;;;;;2.65;1.33;;;11.10;99.90;;;;;;12430964;28;20926;-37
2023/06/04 02:13:04;;;;;;;3.17;1.40;;;11.00;99.90;;;;;;12432452;28;20485;-38
2023/06/04 02:19:06;;;;;;;4.15;1.70;;;11.10;99.90;;;;;;12436201;28;20186;-38
2023/06/04 02:25:11;;;;;;;2.72;1.30;;;11.10;99.90;;;;;;12428676;28;20064;-38
2023/06/04 02:31:13;;;;;;;1.98;1.20;;;10.90;99.90;;;;;;12426844;28;20100;-38
2023/06/04 02:37:15;;;;;;;4.15;1.27;;;11.10;99.90;;;;;;12422863;28;20081;-37
2023/06/04 02:43:16;;;;;;;3.33;1.30;;;11.20;99.90;;;;;;12422376;28;20041;-37
2023/06/04 02:49:18;;;;;;;3.20;1.42;;;11.30;99.90;;;;;;12423017;28;20137;-38
2023/06/04 02:55:20;;;;;;;2.80;1.50;;;11.30;99.90;;;;;;12410500;28;20068;-38
2023/06/04 03:01:26;;;;;;;2.22;1.25;;;11.40;99.90;;;;;;12422646;28;20314;-38
2023/06/04 03:07:28;;;;;;;3.13;1.52;;;11.20;99.90;;;;;;12419281;28;20061;-38
2023/06/04 03:13:30;;;;;;;2.53;1.10;;;11.10;99.90;;;;;;12428305;28;20049;-37
2023/06/04 03:19:42;;;;;;;3.28;1.35;;;11.00;99.90;;;;;;12422791;28;20053;-39
2023/06/04 03:25:44;;;;;;;3.65;1.52;;;11.00;99.90;;;;;;12429518;28;20049;-38
2023/06/04 03:31:46;;;;;;;3.03;1.42;;;10.90;99.90;;;;;;12424436;28;20081;-38
2023/06/04 03:37:48;;;;;;;2.47;1.23;;;11.00;99.90;;;;;;12443329;28;20050;-38
2023/06/04 03:43:49;;;;;;;3.78;1.42;;;11.30;99.90;;;;;;12423200;28;20042;-37
2023/06/04 03:49:51;;;;;;;2.50;1.10;;;11.40;99.90;;;;;;12435630;28;20062;-38
2023/06/04 03:55:53;;;;;;;2.67;1.10;;;11.50;99.90;;;;;;12412905;28;20049;-38
2023/06/04 04:01:55;;;;;;;4.78;1.27;;;11.60;99.90;;;;;;12425394;28;20037;-38
2023/06/04 04:07:57;;;;;;;4.35;1.20;;;11.80;99.90;;;;;;12443159;28;20046;-38
2023/06/04 04:14:00;;;;;;;3.08;1.20;;;13.40;99.90;;;;;;12440361;28;20509;-38
2023/06/04 04:20:05;;;;;;;3.25;1.10;;;14.40;99.90;;;;;;12442215;28;20037;-37
2023/06/04 04:26:08;;;;;;;2.13;1.10;;;14.30;99.90;;;;;;12435225;28;20679;-38
2023/06/04 04:32:10;;;;;;;2.67;1.20;;;14.50;99.90;;;;;;12443213;28;20128;-37
2023/06/04 04:38:13;;;;;;;2.20;1.02;;;15.30;99.90;;;;;;12445813;28;20625;-38
2023/06/04 04:44:15;;;;;;;2.05;0.93;;;16.20;99.90;;;;;;12436053;28;20491;-37
2023/06/04 04:50:23;;;;;;;2.25;1.10;;;15.90;99.90;;;;;;12428450;28;20081;-38
2023/06/04 04:56:26;;;;;;;1.95;1.08;;;16.10;99.90;;;;;;12432280;28;20045;-37
2023/06/04 05:02:28;;;;;;;2.22;1.00;;;15.70;99.90;;;;;;12442826;28;20044;-37
2023/06/04 05:08:30;;;;;;;2.10;0.90;;;15.40;99.90;;;;;;12438746;28;20137;-37
2023/06/04 05:14:35;;;;;;;2.42;1.10;;;14.90;99.90;;;;;;12452476;28;20498;-38
2023/06/04 05:20:37;;;;;;;3.65;0.93;;;14.20;99.90;;;;;;12485334;28;20402;-38
2023/06/04 05:26:39;;;;;;;2.33;1.10;;;13.60;99.90;;;;;;12454606;28;20474;-38
2023/06/04 05:32:41;;;;;;;2.38;1.02;;;13.60;99.90;;;;;;12452874;28;20103;-38
2023/06/04 05:38:43;;;;;;;3.15;1.05;;;13.60;99.90;;;;;;12453397;28;20089;-38
2023/06/04 05:44:45;;;;;;;1.63;1.08;;;13.60;99.90;;;;;;12427675;28;20073;-38
2023/06/04 05:50:47;;;;;;;1.50;0.68;;;13.00;99.90;;;;;;12438513;28;20054;-37
2023/06/04 05:56:49;;;;;;;2.42;1.30;;;13.50;99.90;;;;;;12448167;28;20414;-37
2023/06/04 06:02:55;;;;;;;1.98;1.10;;;13.50;99.90;;;;;;12444848;28;20061;-37
2023/06/04 06:08:58;;;;;;;1.75;0.90;;;13.30;99.90;;;;;;12442321;28;20045;-37
2023/06/04 06:15:00;;;;;;;2.13;1.10;;;13.60;99.90;;;;;;12445409;28;20045;-37
2023/06/04 06:21:01;;;;;;;2.20;1.08;;;13.80;99.90;;;;;;12446295;28;20038;-37
2023/06/04 06:27:04;;;;;;;3.67;1.50;;;13.50;99.90;;;;;;12446829;28;20073;-37
2023/06/04 06:33:08;;;;;;;3.08;1.10;;;13.60;99.90;;;;;;12446309;28;20050;-37
2023/06/04 06:39:10;;;;;;;4.00;1.40;;;13.80;99.90;;;;;;12442846;28;20077;-37
2023/06/04 06:45:12;;;;;;;5.18;1.50;;;13.90;99.90;;;;;;12411231;28;20061;-38
2023/06/04 06:51:14;;;;;;;3.63;1.30;;;14.50;99.90;;;;;;12437133;28;20144;-37
2023/06/04 06:57:16;;;;;;;4.28;1.20;;;14.90;99.90;;;;;;12426504;28;20081;-37
2023/06/04 07:03:18;;;;;;;2.22;1.00;;;14.70;99.90;;;;;;12447060;28;20045;-38
2023/06/04 07:09:20;;;;;;;2.60;1.13;;;15.20;99.90;;;;;;12434621;28;20045;-37
2023/06/04 07:15:22;;;;;;;2.30;1.05;;;15.50;99.90;;;;;;12439284;28;20081;-39
2023/06/04 07:21:24;;;;;;;2.40;0.93;;;15.70;99.90;;;;;;12449650;28;20049;-37
2023/06/04 07:27:26;;;;;;;2.17;1.00;;;15.50;99.90;;;;;;12444717;28;20057;-38
2023/06/04 07:33:28;;;;;;;2.08;0.98;;;15.50;99.90;;;;;;12439945;28;20060;-38
2023/06/04 07:39:30;;;;;;;3.03;1.15;;;15.70;99.90;;;;;;12424684;28;20046;-38
2023/06/04 07:45:32;;;;;;;3.67;1.13;;;15.90;99.90;;;;;;12428854;28;20038;-37
2023/06/04 07:51:37;;;;;;;2.30;1.05;;;16.00;99.90;;;;;;12420615;28;20053;-38
2023/06/04 07:57:39;;;;;;;3.45;1.60;;;16.20;99.90;;;;;;12422922;28;20089;-37
2023/06/04 08:03:41;;;;;;;3.60;1.05;;;16.20;99.90;;;;;;12438129;28;20041;-39
2023/06/04 08:09:45;;;;;;;4.78;1.17;;;16.60;99.90;;;;;;12432452;28;20399;-38
2023/06/04 08:15:47;;;;;;;3.35;1.25;;;16.60;99.90;;;;;;12422517;28;20064;-38
2023/06/04 08:21:50;;;;;;;3.50;1.20;;;16.90;99.90;;;;;;12432906;28;20050;-38
2023/06/04 08:27:52;;;;;;;2.65;1.20;;;17.10;99.90;;;;;;12428018;28;20081;-38
2023/06/04 08:33:54;;;;;;;5.72;1.20;;;17.20;99.90;;;;;;12433586;28;20045;-39
2023/06/04 08:39:56;;;;;;;4.57;1.10;;;17.50;99.90;;;;;;12430215;28;20854;-40
2023/06/04 08:46:01;;;;;;;3.75;1.17;;;17.50;99.90;;;;;;12414790;28;20088;-38
2023/06/04 08:52:05;;;;;;;3.83;1.00;;;17.70;99.90;;;;;;12429254;28;20273;-38
2023/06/04 08:58:10;;;;;;;6.00;1.05;;;17.90;99.90;;;;;;12431890;28;20053;-39
2023/06/04 09:04:12;;;;;;;2.45;1.10;;;18.00;99.90;;;;;;12429872;28;20042;-39
2023/06/04 09:10:20;;;;;;;4.07;1.30;;;18.40;99.90;;;;;;12404072;28;20208;-39
2023/06/04 09:16:22;;;;;;;1.85;1.00;;;18.50;99.90;;;;;;12420764;28;20080;-40
2023/06/04 09:22:34;;;;;;;2.38;0.95;;;18.90;99.90;;;;;;12427479;28;20100;-39
2023/06/04 09:28:41;;;;;;;3.83;1.20;;;18.90;99.90;;;;;;12393880;28;20061;-40
2023/06/04 09:34:45;;;;;;;5.47;1.00;;;19.30;99.90;;;;;;12416433;28;20107;-39
2023/06/04 09:40:48;;;;;;;4.85;1.10;;;19.80;99.90;;;;;;12423818;28;20076;-39
2023/06/04 09:46:55;;;;;;;1.75;0.73;;;19.80;99.90;;;;;;12386481;28;20140;-39
2023/06/04 09:52:57;;;;;;;4.32;1.38;;;19.80;99.90;;;;;;12415006;28;20042;-40
2023/06/04 09:59:03;;;;;;;2.95;1.08;;;19.70;99.90;;;;;;12435738;28;20050;-38
2023/06/04 10:05:08;;;;;;;2.60;0.82;;;20.00;99.90;;;;;;12424035;28;20520;-39
2023/06/04 10:11:13;;;;;;;2.80;1.20;;;20.10;99.90;;;;;;12438173;28;20395;-39
2023/06/04 10:17:17;;;;;;;1.85;0.80;;;20.10;99.90;;;;;;12419808;28;20550;-39
2023/06/04 10:23:21;;;;;;;6.13;1.20;;;20.50;99.90;;;;;;12420610;28;20065;-40
2023/06/04 10:29:25;;;;;;;2.55;1.00;;;20.70;99.90;;;;;;12425471;28;20431;-39
2023/06/04 10:35:31;;;;;;;;;;;20.60;99.90;;;;;;12432613;28;20046;-39
2023/06/04 10:41:34;;;;;;;2.92;0.93;;;20.50;99.90;;;;;;12435397;28;20008;-39
2023/06/04 10:47:40;;;;;;;;;;;20.10;99.90;;;;;;12428405;28;20058;-38
2023/06/04 10:53:50;;;;;;;1.63;0.80;;;20.10;99.90;;;;;;12436659;28;19925;-40
2023/06/04 11:00:00;;;;;;;4.35;0.80;;;20.30;99.90;;;;;;12422061;28;20141;-39
2023/06/04 11:06:02;;;;;;;2.40;0.88;;;20.50;99.90;;;;;;12435159;28;20050;-40
2023/06/04 11:12:05;;;;;;;3.75;1.27;;;21.10;99.90;;;;;;12429520;28;20064;-39
2023/06/04 11:18:08;;;;;;;1.47;0.60;;;20.60;99.90;;;;;;12406941;22;20053;-83
